메인 페이지
METAR-TAF:

METAR-TAF

공항 :

암만, 요르단

위도: 31-59N, 경도: 035-59E, 고도: 767m

현재 날씨관측

예보는 1 시간 3분 전, 11:00시(UTC)에 발표되었습니다.
서북서7kt
온도 26°C
습도 42%
기압 1015 hPa
시정: 5000m
고도 3000ft 상공 구름 보통
고도 20000ft 상공 구름 보통
황사

METAR: OJAM 201100Z 29007KT 5000 DU SCT030 SCT200 26/12 Q1015 NOSIG

시각: 15:03 (12:03 UTC)

예보

예보는 1 시간 3분 전, 11:00시(UTC)에 발표되었습니다.
예보 대상 시간: 20일 12시부터 21일 18시까지 (UTC)
북북서6kt
시정: 5000m
고도 3000ft 상공 구름 보통
연무
일시적
20일 12시부터 21일 16시까지 (UTC)
시정: 3000m
황사
확률 40%
21일 02시부터 21일 06시까지 (UTC)
여러 방향의 바람 1kt
시정: 2000m
박무

TAF: OJAM 201100Z 2012/2118 33006KT 5000 HZ SCT030 TEMPO 2012/2116 3000 DU PROB40 2102/2106 VRB01KT 2000 BR

4,000개 이상의 공항 관측 자료 및 예보 (METAR 및 TAF 보고).

지도상에서 검색 가능한 기상관측소가 노란 점과 빨간 점으로 표시되어 있습니다.

기상관측소 명을 보려면 표시 위로 마우스를 이동하세요.

날씨 관측과 예보를 보려면 클릭하세요.

지도 변경 : 확대하려면 엑스 표시가 있는 녹색 버튼, 축소하려면 빼기 표시가 있는 녹색 버튼, 다음 페이지의 지도를 보려면 녹색 화살표를 클릭하세요.


METAR-TAF: